Time;durP1;ratioP1;P1;durP2;ratioP2;P2;SDS_P1;SDS_P2;PMS_P1;PMS_P2;Temp;Humidity;BMP_temperature;BMP_pressure;BME280_temperature;BME280_humidity;BME280_pressure;Samples;Min_cycle;Max_cycle;Signal;HPM_P1;HPM_P2
2022/07/13 00:01:34;;;;;;;3.33;1.75;;;21.10;96.80;;;;;;5054237;28;20063;-65
2022/07/13 00:04:00;;;;;;;3.10;1.67;;;21.10;96.90;;;;;;5054616;28;20028;-65
2022/07/13 00:06:26;;;;;;;3.60;2.30;;;21.10;97.00;;;;;;5054086;28;20063;-66
2022/07/13 00:08:51;;;;;;;2.53;1.50;;;21.10;97.20;;;;;;5054365;28;20083;-66
2022/07/13 00:11:17;;;;;;;3.60;1.67;;;21.10;97.30;;;;;;5053965;28;20036;-65
2022/07/13 00:13:42;;;;;;;3.95;2.35;;;21.20;97.40;;;;;;5057334;28;20029;-64
2022/07/13 00:16:08;;;;;;;3.90;2.00;;;21.20;97.50;;;;;;5057440;28;20084;-65
2022/07/13 00:18:33;;;;;;;3.22;1.60;;;21.20;97.50;;;;;;5057448;28;20052;-65
2022/07/13 00:20:59;;;;;;;3.45;1.70;;;21.10;97.80;;;;;;5054103;28;20141;-65
2022/07/13 00:23:24;;;;;;;2.55;1.50;;;21.10;98.10;;;;;;5053644;28;20029;-65
2022/07/13 00:25:50;;;;;;;2.55;1.27;;;21.10;98.10;;;;;;5053822;28;20428;-66
2022/07/13 00:28:16;;;;;;;3.03;1.65;;;21.10;97.90;;;;;;5053816;28;20025;-65
2022/07/13 00:30:41;;;;;;;3.58;1.40;;;21.00;97.60;;;;;;5053670;28;20037;-65
2022/07/13 00:33:07;;;;;;;2.95;1.48;;;21.00;97.90;;;;;;5054151;28;20469;-65
2022/07/13 00:35:33;;;;;;;3.05;1.70;;;21.10;97.40;;;;;;5053468;28;20580;-65
2022/07/13 00:37:59;;;;;;;;;;;21.10;97.10;;;;;;5088973;22;20099;-66
2022/07/13 00:40:24;;;;;;;1.85;1.10;;;21.10;97.20;;;;;;5067482;28;19905;-66
2022/07/13 00:42:50;;;;;;;1.73;1.02;;;21.10;97.30;;;;;;5062043;28;20028;-65
2022/07/13 00:45:16;;;;;;;1.88;1.20;;;21.10;97.60;;;;;;5060055;28;20029;-65
2022/07/13 00:47:42;;;;;;;2.58;1.25;;;21.10;97.50;;;;;;5062272;28;20132;-65
2022/07/13 00:50:08;;;;;;;2.53;0.93;;;21.30;97.30;;;;;;5061617;28;20469;-69
2022/07/13 00:52:38;;;;;;;1.50;0.82;;;21.20;96.30;;;;;;5062122;28;20023;-64
2022/07/13 00:55:06;;;;;;;2.58;1.00;;;21.20;96.40;;;;;;5060277;28;20036;-64
2022/07/13 00:57:34;;;;;;;1.08;0.75;;;21.30;96.00;;;;;;5060312;28;20025;-65
2022/07/13 01:00:03;;;;;;;1.73;0.90;;;21.30;95.40;;;;;;5060373;28;20017;-64
2022/07/13 01:02:29;;;;;;;3.17;1.10;;;21.20;95.10;;;;;;5060648;28;20071;-65
2022/07/13 01:04:54;;;;;;;1.13;0.70;;;21.30;95.10;;;;;;5057569;28;20014;-64
2022/07/13 01:07:20;;;;;;;2.55;1.10;;;21.30;94.90;;;;;;5058809;28;20094;-64
2022/07/13 01:09:46;;;;;;;1.08;0.73;;;21.20;94.70;;;;;;5059263;28;20090;-65
2022/07/13 01:12:12;;;;;;;1.63;0.90;;;21.20;94.80;;;;;;5059001;28;20496;-65
2022/07/13 01:14:38;;;;;;;2.10;1.17;;;21.10;94.90;;;;;;5058461;28;20028;-65
2022/07/13 01:17:04;;;;;;;2.22;1.20;;;21.10;95.50;;;;;;5058776;28;20029;-66
2022/07/13 01:19:31;;;;;;;2.28;0.90;;;21.10;96.30;;;;;;5058492;28;20148;-64
2022/07/13 01:22:00;;;;;;;1.75;1.15;;;21.00;96.50;;;;;;5057954;28;20075;-65
2022/07/13 01:24:28;;;;;;;2.13;1.10;;;21.20;96.90;;;;;;5058584;28;20044;-66
2022/07/13 01:26:54;;;;;;;5.63;1.63;;;21.20;97.00;;;;;;5058518;28;20047;-65
2022/07/13 01:29:20;;;;;;;;;;;21.00;97.20;;;;;;5063905;28;20025;-63
2022/07/13 01:31:46;;;;;;;2.83;1.15;;;20.90;97.50;;;;;;5060864;28;19992;-66
2022/07/13 01:34:11;;;;;;;1.85;1.33;;;20.80;98.00;;;;;;5058055;28;20389;-67
2022/07/13 01:36:38;;;;;;;3.30;1.30;;;20.80;98.30;;;;;;5059075;28;20047;-65
2022/07/13 01:39:05;;;;;;;3.05;1.42;;;20.70;98.20;;;;;;5059690;28;20020;-65
2022/07/13 01:41:31;;;;;;;2.85;0.88;;;20.70;98.00;;;;;;5062687;28;20044;-65
2022/07/13 01:43:58;;;;;;;1.50;1.02;;;20.80;98.20;;;;;;5061739;28;20579;-65
2022/07/13 01:46:25;;;;;;;1.27;0.90;;;20.80;98.00;;;;;;5060789;28;20025;-65
2022/07/13 01:48:52;;;;;;;2.67;0.93;;;20.80;97.80;;;;;;5060255;28;20056;-64
2022/07/13 01:51:18;;;;;;;3.53;1.40;;;20.70;97.80;;;;;;5060437;28;20021;-65
2022/07/13 01:53:43;;;;;;;1.92;1.00;;;20.70;98.00;;;;;;5059857;28;20116;-65
2022/07/13 01:56:09;;;;;;;2.05;1.08;;;20.70;98.00;;;;;;5060132;28;20025;-64
2022/07/13 01:58:35;;;;;;;2.53;1.20;;;20.60;97.70;;;;;;5060487;28;20021;-64
2022/07/13 02:01:00;;;;;;;2.10;1.00;;;20.60;97.80;;;;;;5060398;28;20078;-64
2022/07/13 02:03:30;;;;;;;3.15;1.08;;;20.60;97.80;;;;;;5060836;28;20021;-65
2022/07/13 02:05:56;;;;;;;1.02;0.75;;;20.50;97.70;;;;;;5061774;28;20028;-66
2022/07/13 02:08:23;;;;;;;1.60;0.90;;;20.60;97.70;;;;;;5061370;28;20420;-66
2022/07/13 02:10:48;;;;;;;;;;;20.50;97.50;;;;;;5061559;28;20093;-64
2022/07/13 02:13:14;;;;;;;2.08;0.90;;;20.50;97.70;;;;;;5060059;28;20325;-66
2022/07/13 02:15:40;;;;;;;2.95;0.93;;;20.50;97.70;;;;;;5059969;28;20056;-65
2022/07/13 02:18:06;;;;;;;2.30;0.80;;;20.50;97.60;;;;;;5061727;28;20040;-64
2022/07/13 02:20:32;;;;;;;;;;;20.40;97.40;;;;;;5062093;28;20136;-64
2022/07/13 02:22:58;;;;;;;3.42;0.60;;;20.40;97.70;;;;;;5059879;28;20401;-66
2022/07/13 02:25:23;;;;;;;1.48;0.88;;;20.40;97.40;;;;;;5061252;28;20477;-65
2022/07/13 02:27:49;;;;;;;1.48;1.00;;;20.40;97.30;;;;;;5061242;28;20044;-65
2022/07/13 02:30:15;;;;;;;6.85;1.13;;;20.30;97.30;;;;;;5060274;28;20032;-65
2022/07/13 02:32:42;;;;;;;;;;;20.30;97.30;;;;;;5062034;28;20040;-66
2022/07/13 02:35:09;;;;;;;1.20;0.80;;;20.20;97.50;;;;;;5060856;28;19905;-65
2022/07/13 02:37:34;;;;;;;1.67;0.90;;;20.10;97.80;;;;;;5060450;28;20041;-65
2022/07/13 02:40:00;;;;;;;2.55;0.80;;;20.10;98.10;;;;;;5059273;28;20023;-66
2022/07/13 02:42:25;;;;;;;2.17;1.00;;;20.00;98.30;;;;;;5058351;28;20030;-65
2022/07/13 02:44:52;;;;;;;1.38;0.98;;;20.00;98.50;;;;;;5059685;28;20021;-65
2022/07/13 02:47:18;;;;;;;1.48;0.70;;;19.90;98.60;;;;;;5059134;28;20489;-65
2022/07/13 02:49:44;;;;;;;3.17;0.98;;;19.80;98.70;;;;;;5060485;28;20059;-65
2022/07/13 02:52:09;;;;;;;1.63;0.88;;;19.80;99.10;;;;;;5060568;28;20032;-65
2022/07/13 02:54:35;;;;;;;1.20;0.80;;;19.80;98.90;;;;;;5060417;28;20025;-66
2022/07/13 02:57:01;;;;;;;2.97;0.93;;;19.80;98.80;;;;;;5060225;28;20029;-65
2022/07/13 02:59:30;;;;;;;;;;;19.70;98.60;;;;;;5060407;28;20025;-65
2022/07/13 03:01:56;;;;;;;2.42;1.00;;;19.70;98.60;;;;;;5059887;28;19950;-65
2022/07/13 03:04:21;;;;;;;1.65;0.90;;;19.70;98.70;;;;;;5060375;28;20033;-66
2022/07/13 03:06:47;;;;;;;1.70;1.10;;;19.60;98.70;;;;;;5059824;28;20112;-65
2022/07/13 03:09:12;;;;;;;1.65;0.80;;;19.60;98.80;;;;;;5060795;28;20036;-65
2022/07/13 03:11:38;;;;;;;1.98;0.80;;;19.70;98.90;;;;;;5058996;28;20454;-65
2022/07/13 03:14:03;;;;;;;3.40;0.88;;;19.60;99.00;;;;;;5060080;28;20029;-65
2022/07/13 03:16:29;;;;;;;3.20;1.10;;;19.60;99.20;;;;;;5060436;28;20032;-64
2022/07/13 03:18:54;;;;;;;1.30;0.80;;;19.60;99.30;;;;;;5059869;28;20444;-64
2022/07/13 03:21:20;;;;;;;2.10;0.90;;;19.60;99.40;;;;;;5059055;28;20029;-65
2022/07/13 03:23:46;;;;;;;1.65;0.90;;;19.60;99.50;;;;;;5059892;28;20021;-65
2022/07/13 03:26:11;;;;;;;2.22;0.90;;;19.70;99.90;;;;;;5059133;28;20037;-64
2022/07/13 03:28:37;;;;;;;3.42;1.63;;;19.70;99.90;;;;;;5059549;28;20048;-64
2022/07/13 03:31:02;;;;;;;2.03;1.02;;;19.70;99.90;;;;;;5059562;28;20033;-64
2022/07/13 03:33:28;;;;;;;3.10;1.08;;;19.80;99.90;;;;;;5059167;28;20428;-65
2022/07/13 03:35:54;;;;;;;1.63;1.20;;;19.70;99.90;;;;;;5059099;28;20068;-64
2022/07/13 03:38:20;;;;;;;3.42;1.20;;;19.70;99.90;;;;;;5060248;28;20400;-65
2022/07/13 03:40:46;;;;;;;3.10;1.20;;;19.60;99.90;;;;;;5059454;28;20064;-65
2022/07/13 03:43:11;;;;;;;1.95;1.20;;;19.60;99.90;;;;;;5059059;28;20115;-65
2022/07/13 03:45:37;;;;;;;2.28;1.05;;;19.50;99.90;;;;;;5058842;28;20435;-64
2022/07/13 03:48:02;;;;;;;2.60;1.27;;;19.50;99.90;;;;;;5060444;28;20025;-65
2022/07/13 03:50:28;;;;;;;3.63;1.35;;;19.40;99.90;;;;;;5058668;28;20036;-65
2022/07/13 03:52:55;;;;;;;2.78;1.20;;;19.40;99.90;;;;;;5058551;28;20025;-64
2022/07/13 03:55:20;;;;;;;3.22;1.25;;;19.30;99.90;;;;;;5058165;28;20035;-64
2022/07/13 03:57:46;;;;;;;3.53;1.30;;;19.20;99.90;;;;;;5059604;28;20025;-64
2022/07/13 04:00:12;;;;;;;2.70;1.40;;;19.20;99.90;;;;;;5059568;28;20555;-65
2022/07/13 04:02:37;;;;;;;;;;;19.30;99.90;;;;;;5059093;28;20381;-65
2022/07/13 04:05:03;;;;;;;2.72;1.50;;;19.30;99.90;;;;;;5059294;28;19913;-65
2022/07/13 04:07:29;;;;;;;3.78;1.40;;;19.30;99.90;;;;;;5057378;28;20028;-65
2022/07/13 04:09:54;;;;;;;2.83;1.48;;;19.30;99.90;;;;;;5058954;28;20150;-65
2022/07/13 04:12:21;;;;;;;2.25;1.20;;;19.30;99.90;;;;;;5059481;28;20036;-65
2022/07/13 04:14:47;;;;;;;2.58;1.55;;;19.30;99.90;;;;;;5059507;28;20036;-66
2022/07/13 04:17:12;;;;;;;1.30;1.00;;;19.30;99.90;;;;;;5058872;28;20029;-65
2022/07/13 04:19:38;;;;;;;4.57;1.13;;;19.40;99.90;;;;;;5058520;28;20021;-64
2022/07/13 04:22:04;;;;;;;2.10;0.88;;;19.30;99.90;;;;;;5058439;28;20025;-65
2022/07/13 04:24:29;;;;;;;3.00;1.20;;;19.30;99.90;;;;;;5057907;28;20021;-65
2022/07/13 04:26:55;;;;;;;2.38;1.23;;;19.40;99.90;;;;;;5057406;28;20378;-64
2022/07/13 04:29:20;;;;;;;2.30;1.10;;;19.40;99.90;;;;;;5058450;28;20025;-64
2022/07/13 04:31:46;;;;;;;3.53;1.10;;;19.30;99.90;;;;;;5054877;28;20029;-64
2022/07/13 04:34:11;;;;;;;1.73;1.10;;;19.40;99.90;;;;;;5054182;28;20033;-64
2022/07/13 04:36:37;;;;;;;2.65;1.00;;;19.50;99.90;;;;;;5054267;28;20028;-64
2022/07/13 04:39:03;;;;;;;2.47;1.13;;;19.60;99.90;;;;;;5054615;28;20040;-64
2022/07/13 04:41:28;;;;;;;4.13;1.25;;;19.70;99.90;;;;;;5054379;28;20128;-64
2022/07/13 04:43:54;;;;;;;1.50;1.10;;;19.60;99.90;;;;;;5053981;28;20444;-63
2022/07/13 04:46:19;;;;;;;4.03;1.98;;;19.60;99.90;;;;;;5056634;28;20477;-65
2022/07/13 04:48:45;;;;;;;3.53;1.30;;;19.60;99.90;;;;;;5056729;28;20489;-67
2022/07/13 04:51:11;;;;;;;3.25;1.30;;;19.70;99.90;;;;;;5056137;28;20083;-66
2022/07/13 04:53:36;;;;;;;1.52;1.13;;;20.10;99.90;;;;;;5058452;28;20067;-64
2022/07/13 04:56:02;;;;;;;2.83;1.42;;;20.10;99.90;;;;;;5055982;28;20078;-63
2022/07/13 04:58:27;;;;;;;3.28;1.20;;;20.10;99.90;;;;;;5054919;28;20040;-64
2022/07/13 05:00:53;;;;;;;4.30;1.17;;;20.10;99.90;;;;;;5054591;28;20056;-65
2022/07/13 05:03:18;;;;;;;1.40;1.13;;;20.10;99.90;;;;;;5054696;28;20024;-65
2022/07/13 05:05:44;;;;;;;4.78;1.15;;;20.20;99.80;;;;;;5054184;28;20025;-65
2022/07/13 05:08:11;;;;;;;4.15;1.20;;;20.40;99.80;;;;;;5053875;28;20086;-64
2022/07/13 05:10:36;;;;;;;4.05;1.25;;;20.60;99.40;;;;;;5054771;28;20059;-64
2022/07/13 05:13:02;;;;;;;2.75;1.25;;;20.80;99.00;;;;;;5052982;28;20082;-66
2022/07/13 05:15:28;;;;;;;2.83;1.15;;;20.90;98.60;;;;;;5053470;28;20028;-64
2022/07/13 05:17:53;;;;;;;2.97;1.23;;;21.10;98.60;;;;;;5054045;28;20070;-65
2022/07/13 05:20:19;;;;;;;3.45;1.15;;;21.20;98.30;;;;;;5055029;28;20025;-65
2022/07/13 05:22:44;;;;;;;4.47;1.35;;;21.20;98.30;;;;;;5053281;28;20056;-65
2022/07/13 05:25:10;;;;;;;6.47;1.63;;;21.30;98.50;;;;;;5053576;28;20022;-65
2022/07/13 05:27:35;;;;;;;4.43;1.50;;;21.20;98.80;;;;;;5053464;28;20025;-66
2022/07/13 05:30:01;;;;;;;3.03;1.70;;;21.30;99.10;;;;;;5053560;28;20021;-66
2022/07/13 05:32:27;;;;;;;2.65;1.23;;;21.30;99.20;;;;;;5051837;28;20389;-66
2022/07/13 05:34:53;;;;;;;4.50;1.70;;;21.40;99.30;;;;;;5053194;28;20056;-65
2022/07/13 05:37:18;;;;;;;3.85;1.58;;;21.50;98.80;;;;;;5051979;28;20037;-65
2022/07/13 05:39:45;;;;;;;3.13;1.55;;;21.50;98.70;;;;;;5055127;28;20029;-65
2022/07/13 05:42:11;;;;;;;6.25;1.58;;;21.60;98.60;;;;;;5052771;28;20025;-66
2022/07/13 05:44:37;;;;;;;7.13;1.95;;;21.70;98.50;;;;;;5054786;28;20107;-68
2022/07/13 05:47:03;;;;;;;4.43;1.63;;;21.90;98.00;;;;;;5052273;28;20040;-68
2022/07/13 05:49:29;;;;;;;2.75;1.60;;;21.90;97.40;;;;;;5053643;28;20455;-66
2022/07/13 05:51:54;;;;;;;9.32;1.67;;;21.90;97.70;;;;;;5053660;28;20041;-65
2022/07/13 05:54:20;;;;;;;2.30;1.70;;;22.00;98.50;;;;;;5051822;28;20021;-65
2022/07/13 05:56:45;;;;;;;;;;;22.10;98.60;;;;;;5053342;28;20029;-65
2022/07/13 05:59:11;;;;;;;3.95;1.55;;;22.10;98.60;;;;;;5053083;28;19915;-65
2022/07/13 06:01:36;;;;;;;3.03;1.73;;;22.20;98.40;;;;;;5053095;28;20105;-66
2022/07/13 06:04:02;;;;;;;5.88;1.75;;;22.20;98.10;;;;;;5052265;28;20036;-69
2022/07/13 06:06:27;;;;;;;6.38;1.35;;;22.20;98.20;;;;;;5053372;28;20032;-68
2022/07/13 06:08:53;;;;;;;;;;;22.30;97.70;;;;;;5053905;28;20493;-68
2022/07/13 06:11:18;;;;;;;2.85;1.80;;;22.40;97.70;;;;;;5053233;28;19995;-68
2022/07/13 06:13:44;;;;;;;;;;;22.50;97.70;;;;;;5053156;28;20021;-63
2022/07/13 06:16:09;;;;;;;3.33;2.17;;;22.60;97.40;;;;;;5051223;28;20246;-64
2022/07/13 06:18:35;;;;;;;;;;;22.70;97.20;;;;;;5052899;28;20025;-63
2022/07/13 06:21:01;;;;;;;6.10;2.45;;;22.90;96.80;;;;;;5053036;28;20389;-63
2022/07/13 06:23:26;;;;;;;;;;;22.80;96.60;;;;;;5056830;28;20021;-63
2022/07/13 06:25:53;;;;;;;6.53;2.83;;;22.90;97.00;;;;;;5056207;28;20320;-63
2022/07/13 06:28:19;;;;;;;6.43;2.78;;;23.00;96.90;;;;;;5056209;28;20029;-64
2022/07/13 06:30:45;;;;;;;5.03;1.90;;;23.20;96.70;;;;;;5056232;28;20079;-62
2022/07/13 06:33:10;;;;;;;;;;;23.30;96.60;;;;;;5055414;28;20036;-62
2022/07/13 06:35:36;;;;;;;7.97;2.30;;;23.60;96.20;;;;;;5056257;28;19909;-61
2022/07/13 06:38:01;;;;;;;;;;;23.60;96.20;;;;;;5056277;28;20441;-63
2022/07/13 06:40:27;;;;;;;5.32;2.17;;;23.60;96.30;;;;;;5056024;28;19909;-61
2022/07/13 06:42:52;;;;;;;;;;;23.70;96.10;;;;;;5079827;22;20045;-61
2022/07/13 06:45:18;;;;;;;7.47;2.25;;;23.80;96.10;;;;;;5055096;28;19904;-60
2022/07/13 06:47:45;;;;;;;;;;;23.90;96.00;;;;;;5055210;28;20059;-61
2022/07/13 06:50:12;;;;;;;4.35;1.83;;;24.00;95.80;;;;;;5054624;28;20384;-60
2022/07/13 06:52:37;;;;;;;10.25;2.65;;;24.00;96.20;;;;;;5055095;28;20082;-61
2022/07/13 06:55:04;;;;;;;;;;;24.30;95.50;;;;;;5056473;28;20088;-61
2022/07/13 06:57:30;;;;;;;6.22;2.30;;;24.50;95.40;;;;;;5055910;28;19909;-61
2022/07/13 06:59:56;;;;;;;11.70;2.42;;;24.70;95.10;;;;;;5055715;28;20075;-60
2022/07/13 07:02:21;;;;;;;;;;;24.90;94.80;;;;;;5055829;28;20440;-60
2022/07/13 07:04:47;;;;;;;8.82;2.25;;;25.20;94.50;;;;;;5057433;28;19939;-60
2022/07/13 07:07:12;;;;;;;;;;;25.30;94.20;;;;;;5058255;28;20385;-59
2022/07/13 07:09:38;;;;;;;11.57;2.80;;;25.20;94.20;;;;;;5057874;28;19905;-61
2022/07/13 07:12:04;;;;;;;7.70;2.75;;;25.40;94.40;;;;;;5058394;28;20031;-62
2022/07/13 07:14:32;;;;;;;7.82;2.97;;;25.60;94.20;;;;;;5057352;28;20034;-62
2022/07/13 07:17:02;;;;;;;10.20;3.08;;;25.70;94.00;;;;;;5056825;28;20115;-60
2022/07/13 07:19:28;;;;;;;10.70;2.40;;;25.90;93.60;;;;;;5058013;28;20017;-61
2022/07/13 07:21:54;;;;;;;7.78;2.70;;;26.00;93.10;;;;;;5057654;28;20484;-62
2022/07/13 07:24:20;;;;;;;12.80;3.17;;;26.20;92.80;;;;;;5055901;28;20375;-59
2022/07/13 07:26:47;;;;;;;14.82;2.90;;;26.50;92.40;;;;;;5057235;28;20075;-61
2022/07/13 07:29:13;;;;;;;6.20;2.60;;;26.70;91.90;;;;;;5058029;28;20035;-61
2022/07/13 07:31:39;;;;;;;7.35;2.42;;;26.70;90.40;;;;;;5056927;28;20029;-62
2022/07/13 07:34:04;;;;;;;8.38;2.10;;;26.50;90.30;;;;;;5055060;28;20366;-61
2022/07/13 07:36:30;;;;;;;5.05;2.00;;;26.40;90.30;;;;;;5054795;28;20028;-61
2022/07/13 07:38:55;;;;;;;5.03;1.92;;;26.40;90.40;;;;;;5057272;28;20075;-61
2022/07/13 07:41:21;;;;;;;4.25;1.70;;;26.10;90.70;;;;;;5056155;28;20025;-62
2022/07/13 07:43:48;;;;;;;8.35;2.60;;;26.40;92.30;;;;;;5055026;28;20111;-64
2022/07/13 07:46:14;;;;;;;7.88;2.35;;;26.50;90.70;;;;;;5056054;28;20025;-63
2022/07/13 07:48:39;;;;;;;8.13;2.03;;;26.70;91.90;;;;;;5053815;28;20492;-64
2022/07/13 07:51:05;;;;;;;5.50;2.10;;;27.10;90.40;;;;;;5055047;28;20029;-64
2022/07/13 07:53:31;;;;;;;3.70;1.60;;;27.40;87.70;;;;;;5055228;28;20394;-67
2022/07/13 07:55:57;;;;;;;4.28;1.33;;;27.80;86.40;;;;;;5055116;28;20037;-65
2022/07/13 07:58:22;;;;;;;6.93;1.25;;;28.00;85.30;;;;;;5053639;28;20021;-65
2022/07/13 08:00:48;;;;;;;8.75;1.73;;;28.10;82.90;;;;;;5054466;28;20104;-64
2022/07/13 08:03:14;;;;;;;2.80;1.83;;;27.80;84.00;;;;;;5055007;28;20055;-64
2022/07/13 08:05:41;;;;;;;3.40;1.67;;;27.60;84.30;;;;;;5056231;28;20021;-65
2022/07/13 08:08:06;;;;;;;5.88;1.95;;;27.30;84.90;;;;;;5055699;28;20024;-59
2022/07/13 08:10:32;;;;;;;5.50;1.75;;;26.90;85.70;;;;;;5054487;28;20025;-61
2022/07/13 08:13:00;;;;;;;2.53;1.70;;;26.80;85.70;;;;;;5054804;28;20102;-61
2022/07/13 08:15:27;;;;;;;3.30;1.20;;;26.80;86.00;;;;;;5053882;28;20028;-60
2022/07/13 08:17:52;;;;;;;3.20;1.55;;;28.10;84.20;;;;;;5054095;28;20116;-62
2022/07/13 08:20:18;;;;;;;5.78;1.35;;;30.00;80.10;;;;;;5052863;28;20027;-59
2022/07/13 08:22:43;;;;;;;5.35;1.63;;;30.40;78.60;;;;;;5053928;28;20108;-61
2022/07/13 08:25:09;;;;;;;3.40;1.20;;;32.00;76.10;;;;;;5054833;28;20030;-60
2022/07/13 08:27:34;;;;;;;3.78;1.30;;;32.80;73.50;;;;;;5054121;28;20025;-63
2022/07/13 08:30:00;;;;;;;3.08;1.08;;;33.70;70.60;;;;;;5053851;28;20029;-63
2022/07/13 08:32:26;;;;;;;8.68;2.17;;;33.40;69.40;;;;;;5053734;28;20040;-63
2022/07/13 08:40:21;;;;;;;2.65;1.00;;;36.70;63.70;;;;;;5054201;28;20112;-64
2022/07/13 08:42:47;;;;;;;4.10;1.30;;;37.70;60.70;;;;;;5053758;28;20067;-64
2022/07/13 08:45:13;;;;;;;4.07;1.30;;;38.20;58.60;;;;;;5052844;28;20032;-64
2022/07/13 08:47:42;;;;;;;3.00;1.13;;;38.70;58.10;;;;;;5054530;28;20025;-63
2022/07/13 08:50:09;;;;;;;2.38;0.90;;;39.20;56.70;;;;;;5052525;28;20021;-63
2022/07/13 08:52:36;;;;;;;4.10;0.90;;;39.70;55.90;;;;;;5054035;28;20074;-62
2022/07/13 08:55:06;;;;;;;1.35;0.80;;;40.80;53.60;;;;;;5054107;28;20096;-64
2022/07/13 08:57:36;;;;;;;1.08;0.80;;;41.60;52.10;;;;;;5054199;28;20025;-64
2022/07/13 09:00:09;;;;;;;4.90;0.98;;;41.90;50.90;;;;;;5054458;28;20029;-65
2022/07/13 09:02:35;;;;;;;2.40;1.00;;;41.20;50.80;;;;;;5052578;28;20032;-64
2022/07/13 09:05:06;;;;;;;2.05;0.80;;;39.50;51.40;;;;;;5054047;28;20076;-66
2022/07/13 09:07:33;;;;;;;1.40;1.00;;;38.70;52.40;;;;;;5053333;28;20486;-66
2022/07/13 09:10:01;;;;;;;2.88;1.08;;;38.60;52.90;;;;;;5051875;28;20040;-65
2022/07/13 09:12:27;;;;;;;2.40;0.90;;;39.50;52.50;;;;;;5054079;28;20052;-63
2022/07/13 09:14:54;;;;;;;1.52;0.95;;;40.50;51.90;;;;;;5053072;28;20060;-64
2022/07/13 09:17:47;;;;;;;2.78;1.00;;;41.00;51.20;;;;;;5053282;28;20052;-63
2022/07/13 09:20:13;;;;;;;2.58;0.98;;;42.00;50.40;;;;;;5052987;28;20402;-64
2022/07/13 09:22:48;;;;;;;1.15;1.00;;;42.70;49.60;;;;;;5053100;28;20048;-64
2022/07/13 09:25:40;;;;;;;1.83;1.13;;;43.40;48.60;;;;;;5053303;28;20064;-63
2022/07/13 09:28:08;;;;;;;2.00;1.10;;;43.60;47.70;;;;;;5050434;28;20033;-64
2022/07/13 09:30:36;;;;;;;1.42;1.00;;;43.60;47.00;;;;;;5053496;28;20021;-63
2022/07/13 09:33:02;;;;;;;1.70;0.82;;;43.70;46.60;;;;;;5052290;28;20531;-63
2022/07/13 09:35:50;;;;;;;1.95;1.00;;;43.70;46.50;;;;;;5053511;28;20497;-63
2022/07/13 09:38:33;;;;;;;2.05;1.00;;;44.10;46.10;;;;;;5053714;28;20546;-64
2022/07/13 09:41:14;;;;;;;2.33;1.92;;;44.50;45.30;;;;;;5053362;28;20477;-63
2022/07/13 09:46:57;;;;;;;1.65;1.00;;;43.70;44.90;;;;;;5053303;28;20062;-63
2022/07/13 09:49:39;;;;;;;2.13;0.90;;;43.60;45.10;;;;;;5053371;28;20104;-63
2022/07/13 09:52:06;;;;;;;2.30;0.90;;;43.60;45.10;;;;;;5053181;28;20047;-62
2022/07/13 09:54:34;;;;;;;1.35;1.05;;;42.70;45.30;;;;;;5053656;28;20201;-63
2022/07/13 09:57:02;;;;;;;1.90;0.88;;;41.00;46.30;;;;;;5053900;28;20025;-62
2022/07/13 09:59:29;;;;;;;1.20;0.73;;;40.10;46.80;;;;;;5055987;28;20029;-63
2022/07/13 10:01:55;;;;;;;1.33;0.70;;;39.40;47.80;;;;;;5056969;28;20021;-62
2022/07/13 10:04:21;;;;;;;3.97;0.90;;;39.20;48.20;;;;;;5056041;28;20036;-62
2022/07/13 10:06:47;;;;;;;2.70;1.05;;;39.30;48.00;;;;;;5056971;28;20025;-61
2022/07/13 10:09:12;;;;;;;4.25;1.13;;;40.00;47.40;;;;;;5055721;28;20090;-66
2022/07/13 10:11:38;;;;;;;2.92;0.77;;;39.00;47.50;;;;;;5056749;28;20027;-62
2022/07/13 10:14:07;;;;;;;6.72;1.30;;;38.10;48.60;;;;;;5056640;28;20025;-60
2022/07/13 10:16:33;;;;;;;1.50;1.00;;;37.60;49.00;;;;;;5056711;28;20036;-61
2022/07/13 10:19:07;;;;;;;2.72;1.35;;;36.80;49.90;;;;;;5056491;28;20021;-62
2022/07/13 10:21:51;;;;;;;2.72;0.70;;;36.80;49.80;;;;;;5056841;28;20169;-63
2022/07/13 10:24:17;;;;;;;1.17;0.93;;;37.50;49.60;;;;;;5056648;28;20044;-64
2022/07/13 10:26:47;;;;;;;1.50;0.60;;;37.70;49.50;;;;;;5055847;28;20025;-61
2022/07/13 10:29:15;;;;;;;1.27;0.90;;;36.80;50.10;;;;;;5057005;28;20028;-61
2022/07/13 10:31:41;;;;;;;1.25;0.90;;;37.00;50.10;;;;;;5056514;28;20469;-64
2022/07/13 10:34:09;;;;;;;1.50;0.80;;;37.10;49.90;;;;;;5055719;28;20028;-64
2022/07/13 10:36:57;;;;;;;1.75;0.85;;;38.30;49.20;;;;;;5056518;28;20039;-62
2022/07/13 10:39:24;;;;;;;1.80;0.98;;;39.10;48.70;;;;;;5056777;28;20021;-62
2022/07/13 10:42:03;;;;;;;2.95;0.90;;;40.70;47.90;;;;;;5056198;28;20023;-63
2022/07/13 10:44:40;;;;;;;1.65;1.02;;;41.60;46.10;;;;;;5056644;28;20159;-66
2022/07/13 10:47:07;;;;;;;0.80;0.80;;;42.00;45.10;;;;;;5056476;28;20048;-62
2022/07/13 10:49:32;;;;;;;1.67;0.70;;;42.50;43.80;;;;;;5056165;28;20017;-63
2022/07/13 10:52:20;;;;;;;2.85;0.70;;;42.00;44.20;;;;;;5054760;28;20039;-65
2022/07/13 10:55:15;;;;;;;1.40;0.70;;;41.20;44.70;;;;;;5055798;28;20029;-64
2022/07/13 10:57:42;;;;;;;0.63;0.63;;;41.50;44.50;;;;;;5042415;28;20040;-61
2022/07/13 11:00:19;;;;;;;2.63;1.15;;;42.20;44.40;;;;;;5054656;28;20116;-62
2022/07/13 11:02:47;;;;;;;1.00;0.70;;;42.70;44.10;;;;;;5056844;28;20350;-62
2022/07/13 11:05:14;;;;;;;1.67;0.80;;;43.50;43.40;;;;;;5055884;28;20025;-62
2022/07/13 11:07:42;;;;;;;1.67;0.90;;;44.00;42.80;;;;;;5055694;28;20025;-62
2022/07/13 11:10:28;;;;;;;1.35;0.80;;;44.10;42.30;;;;;;5055817;28;20025;-63
2022/07/13 11:13:14;;;;;;;0.85;0.80;;;43.60;41.50;;;;;;5055763;28;20104;-62
2022/07/13 11:15:47;;;;;;;3.00;0.90;;;42.40;42.50;;;;;;5056194;28;20036;-64
2022/07/13 11:18:24;;;;;;;0.80;0.70;;;41.00;42.40;;;;;;5055193;28;20017;-65
2022/07/13 11:21:00;;;;;;;1.95;0.80;;;38.80;43.60;;;;;;5055126;28;20028;-64
2022/07/13 11:26:36;;;;;;;1.48;0.70;;;36.40;46.20;;;;;;5055813;28;20094;-59
2022/07/13 11:29:24;;;;;;;1.30;0.57;;;35.60;46.80;;;;;;5055439;28;20029;-62
2022/07/13 11:32:00;;;;;;;2.28;0.80;;;34.60;48.30;;;;;;5056990;28;20028;-60
2022/07/13 11:34:29;;;;;;;2.72;1.00;;;33.90;48.70;;;;;;5054933;28;20029;-61
2022/07/13 11:37:01;;;;;;;0.85;0.63;;;33.80;48.00;;;;;;5055658;28;20036;-61
2022/07/13 11:39:29;;;;;;;3.22;0.70;;;33.60;48.40;;;;;;5055099;28;20017;-60
2022/07/13 11:41:56;;;;;;;4.78;0.85;;;33.50;50.10;;;;;;5054892;28;20017;-61
2022/07/13 11:44:29;;;;;;;0.93;0.55;;;33.30;50.60;;;;;;5054987;28;20441;-60
2022/07/13 11:46:57;;;;;;;1.48;0.60;;;33.00;51.00;;;;;;5055400;28;20492;-60
2022/07/13 11:49:24;;;;;;;1.98;0.90;;;32.90;51.30;;;;;;5056247;28;20028;-62
2022/07/13 11:51:50;;;;;;;3.65;1.30;;;33.00;52.30;;;;;;5055701;28;20057;-60
2022/07/13 11:54:18;;;;;;;3.28;0.70;;;33.30;51.60;;;;;;5053866;28;20029;-61
2022/07/13 11:56:48;;;;;;;4.32;1.17;;;33.40;51.00;;;;;;5054655;28;20506;-59
2022/07/13 11:59:15;;;;;;;1.65;0.68;;;33.70;50.70;;;;;;5054611;28;20071;-61
2022/07/13 12:01:51;;;;;;;2.05;0.70;;;33.70;50.30;;;;;;5055399;28;20032;-61
2022/07/13 12:04:25;;;;;;;2.45;0.80;;;33.60;51.00;;;;;;5053449;28;20020;-61
2022/07/13 12:06:51;;;;;;;2.03;0.70;;;33.70;50.90;;;;;;5055420;28;20112;-62
2022/07/13 12:09:18;;;;;;;2.35;0.65;;;33.80;51.10;;;;;;5053529;28;20040;-62
2022/07/13 12:11:45;;;;;;;1.08;0.60;;;33.50;51.30;;;;;;5055182;28;20031;-59
2022/07/13 12:14:12;;;;;;;1.50;0.77;;;33.10;51.60;;;;;;5054776;28;20107;-60
2022/07/13 12:16:38;;;;;;;1.40;0.80;;;32.90;51.60;;;;;;5053395;28;20038;-60
2022/07/13 12:19:08;;;;;;;5.55;0.75;;;33.00;51.70;;;;;;5053997;28;20021;-59
2022/07/13 12:21:35;;;;;;;5.63;2.55;;;33.20;50.90;;;;;;5054202;28;20031;-60
2022/07/13 12:24:02;;;;;;;2.65;1.30;;;33.30;51.40;;;;;;5054376;28;20017;-60
2022/07/13 12:26:28;;;;;;;1.00;0.90;;;33.50;51.30;;;;;;5053110;28;20032;-63
2022/07/13 12:28:54;;;;;;;2.65;0.70;;;33.80;51.00;;;;;;5053083;28;20071;-63
2022/07/13 12:31:21;;;;;;;0.80;0.50;;;33.90;50.00;;;;;;5052707;28;20074;-63
2022/07/13 12:33:50;;;;;;;2.05;0.57;;;33.70;49.90;;;;;;5055213;28;20027;-62
2022/07/13 12:36:20;;;;;;;1.45;0.80;;;33.40;49.90;;;;;;5054597;28;20021;-62
2022/07/13 12:39:11;;;;;;;3.50;0.50;;;33.40;49.40;;;;;;5053960;28;20024;-63
2022/07/13 12:41:41;;;;;;;5.07;0.90;;;33.50;49.80;;;;;;5050588;28;20039;-63
2022/07/13 12:44:08;;;;;;;1.02;0.90;;;33.50;50.20;;;;;;5053579;28;20033;-63
2022/07/13 12:46:51;;;;;;;2.35;0.82;;;33.70;51.10;;;;;;5054274;28;20054;-65
2022/07/13 12:49:16;;;;;;;2.45;0.57;;;33.70;51.60;;;;;;5053081;28;20040;-63
2022/07/13 12:51:49;;;;;;;3.72;0.55;;;33.60;51.40;;;;;;5076998;22;20049;-70
2022/07/13 12:54:15;;;;;;;2.47;0.80;;;33.40;51.70;;;;;;5053806;28;20060;-69
2022/07/13 12:56:51;;;;;;;4.65;0.73;;;33.30;52.10;;;;;;5053391;28;20032;-67
2022/07/13 12:59:20;;;;;;;1.00;0.60;;;33.20;52.30;;;;;;5053380;28;20147;-68
2022/07/13 13:01:47;;;;;;;1.17;0.73;;;33.00;52.40;;;;;;5052992;28;20031;-68
2022/07/13 13:04:16;;;;;;;4.07;0.80;;;33.00;52.30;;;;;;5053543;28;20448;-67